Choose a state:
Most recent flow and stage for Montana
(Stations highlighted in red are currently above flood stage)
USGS
station
ID
USGS station name NWS
flood
stage
(ft)
Most recent
stage
(ft)
Most recent
flow
(cfs)
Historical
peaks
(cfs)
Most recent
local
date/time
NWS
station
ID
05014300 Swiftcurrent Cr ab Swiftcurrent Lk at Many Glacier   1.75 142 2,000 2016-06-25 10:30:00 SCLM8
05014500 Swiftcurrent Creek at Many Glacier MT   2.55 306 6,700 2016-06-25 10:30:00 MGGM8
05015500 Lake Sherburne at Sherburne MT   4785.41

 

  2016-06-25 10:00:00 SBUM8
05017500 St. Mary River near Babb MT   3.50 1,460 16,500 2016-06-25 10:15:00 SMYM8
05018000 St. Mary Canal at intake near Babb MT   7.79 666   2016-06-25 10:15:00 SCIM8
05018500 St. Mary Canal at St. Mary Crossing near Babb MT   7.66 606   2016-06-25 10:15:00 SCCM8
05020500 St. Mary River at International Boundary 7.5 5.07 891 40,000 2016-06-25 10:10:00  
06006000 Red Rock Cr ab Lakes nr Lakeview MT   3.08 48 293 2016-06-25 10:30:00 RRLM8
06012500 Red Rock R bl Lima Reservoir nr Monida MT   3.39 574 2,500 2016-06-25 10:30:00 LRRM8
06016000 Beaverhead River at Barretts MT   1.80 523 3,720 2016-06-25 10:15:00 BARM8
06017000 Beaverhead River at Dillon MT   3.66 185 1,740 2016-06-25 10:15:00 DILM8
06018500 Beaverhead River near Twin Bridges MT 7 3.57 96 3,130 2016-06-25 10:15:00 TWNM8
06019500 Ruby River above reservoir near Alder, MT   3.18 194 3,810 2016-06-25 10:45:00 RRRM8
06020600 Ruby River below reservoir near Alder, MT   3.45 300 3,010 2016-06-25 10:45:00 RRBM8
06023000 Ruby River near Twin Bridges MT   2.43 132 1,500 2016-06-25 10:45:00 RTBM8
06023100 Beaverhead River at Twin Bridges, MT   2.81 338   2016-06-25 10:30:00 TWBM8
06023500 Big Hole River near Jackson MT   1.85 97 938 2016-06-25 10:15:00 JKSM8
06023800 Big Hole River ab Spring Creek nr Jackson MT   2.48 44 474 2016-06-25 11:00:00 SCRM8
06024020 Big Hole River at Miner Creek nr Jackson MT   1.61 155 2,300 2016-06-25 10:15:00 MCKM8
06024450 Big Hole River bl Big Lake Cr at Wisdom MT   2.32 70 4,300 2016-06-25 10:45:00 BGKM8
06024540 Big Hole River bl Mudd Cr nr Wisdom MT   3.05 432 6,660 2016-06-25 10:30:00 BHDM8
06024580 Big Hole River near Wise River MT   3.25 619 9,130 2016-06-25 10:30:00 WSVM8
06025250 Big Hole River at Maiden Rock nr Divide MT   3.67 969 10,600 2016-06-25 10:45:00 MRDM8
06025500 Big Hole River near Melrose MT 6 2.28 973 23,000 2016-06-25 10:15:00 MLRM8
06026210 Big Hole River near Glen MT   3.01 963 11,900 2016-06-25 10:30:00 GNLM8
06026420 Big Hole R bl Hamilton Ditch nr Twin Bridges, MT   2.01 640 11,200 2016-06-25 10:30:00  
06026500 Jefferson River near Twin Bridges MT 10 3.87 1,100 16,500 2016-06-25 10:15:00 TWIM8
06027600 Jefferson River at Parsons Bdg nr Silver Star, MT   3.34 Eqp 13,600 2016-06-25 10:30:00 PBRM8
06033000 Boulder River near Boulder MT   5.40 85 7,000 2016-06-25 10:15:00  
06035000 Willow Creek near Harrison MT   1.40 36 813 2016-06-25 10:15:00 WCHM8
06036650 Jefferson River near Three Forks MT 8 3.29 1,270 17,400 2016-06-25 10:00:00 TFKM8
06036805 Firehole River at Old Faithful, YNP   2.40 41 477 2016-06-25 11:00:00 FOFW4
06036905 Firehole River near West Yellowstone MT   2.96 221 2,050 2016-06-25 10:00:00 FRYW4
06036940 Tantalus Creek at Norris Junction, YNP   1.40 2.7 25 2016-06-25 10:30:00 TCKW4
06037100 Gibbon River at Madison Jct, YNP   4.47 109 1,010 2016-06-25 10:00:00 GMJW4
06037500 Madison River near West Yellowstone MT   1.72 356 2,820 2016-06-25 10:30:00 MDSM8
06038500 Madison River bl Hebgen Lake nr Grayling MT   1.23 509 10,200 2016-06-25 10:45:00 HBDM8
06038800 Madison River at Kirby Ranch nr Cameron MT   1.71 809 5,030 2016-06-25 10:45:00 CMRM8
06040000 Madison River near Cameron MT   2.54 1,210 8,830 2016-06-25 10:15:00 CMNM8
06040800 Madison River ab powerplant nr McAllister MT   3.78 220 5,940 2016-06-25 10:45:00 MRPM8
06041000 Madison River bl Ennis Lake nr McAllister MT   2.22 1,340 9,550 2016-06-25 10:45:00 MADM8
06043500 Gallatin River near Gallatin Gateway MT 6 2.66 1,330 9,160 2016-06-25 10:00:00 GLGM8
06048650 E Gallatin R ab Water Reclamation Fa nr Bozeman MT   3.63 91 492 2016-06-25 10:30:00  
06050000 Hyalite C at Hyalite R S nr Bozeman MT   2.72 97 956 2016-06-25 10:30:00  
06052500 Gallatin River at Logan MT 9 4.86 837 9,840 2016-06-25 10:00:00 LOGM8
06054500 Missouri River at Toston MT 10.5 4.14 3,260 34,000 2016-06-25 10:00:00 TOSM8
06061500 Prickly Pear Creek near Clancy MT   1.13 54 2,300 2016-06-25 10:30:00 PKPM8
06062500 Tenmile Creek near Rimini MT   1.70 10 3,290 2016-06-25 10:45:00 RIMM8
06063000 Tenmile Creek near Helena MT 4.5 2.32 11 3,770 2016-06-25 10:15:00  
06065500 Missouri River bl Hauser Dam near Helena MT   3.87 4,250 33,300 2016-06-25 10:00:00 HASM8
06066500 Missouri River bl Holter Dam nr Wolf Cr MT   2.89 4,280 34,800 2016-06-25 10:45:00 HTRM8
06071300 Little Prickly Pear Cr at Wolf Cr MT   2.99 52 4,500 2016-06-25 10:45:00 LPPM8
06073500 Dearborn River near Craig MT 6.5 3.24 109 15,400 2016-06-25 10:15:00 DBRM8
06074000 Missouri River at Cascade MT   7.01 4,470 54,250 2016-05-04 14:30:00  
06076690 Smith River near Ft Logan MT   3.07 122 4,600 2016-06-25 10:30:00 SFLM8
06077200 Smith River bl Eagle Cr nr Fort Logan MT   3.47 204 4,030 2016-06-25 10:15:00 SMHM8
06077500 Smith River near Eden MT   3.39 279 12,300 2016-06-25 10:45:00 EDNM8
06078200 Missouri River near Ulm MT 13.5 3.87 4,700 35,000 2016-06-25 10:00:00 ULMM8
06078500 North Fork Sun River near Augusta MT   4.23 307 51,100 2016-06-25 10:30:00 NFSM8
06079000 South Fork Sun River near Augusta MT   2.17 351 4,370 2016-06-25 10:15:00 SSNM8
06080900 Sun River bl Diversion Dam nr Augusta MT   3.87 184 59,700 2016-06-25 10:45:00  
06082200 Sun River bl Willow Cr nr Augusta MT   2.30 275 46,700 2016-06-25 10:15:00  
06085800 Sun River at Simms MT 7.5 1.56 63 50,000 2016-06-25 10:30:00 SSRM8
06088500 Muddy Creek at Vaughn MT 12 4.75 313 7,600 2016-06-25 10:30:00 MDYM8
06089000 Sun River near Vaughn MT 6 2.36 494 53,500 2016-06-25 10:00:00 VAUM8
06090000 Missouri River at Great Falls MT   10.68

 

  2016-06-25 10:30:00  
06090300 Missouri River near Great Falls MT   3.41 5,830 72,000 2016-06-25 10:45:00 GFLM8
06090500 Belt Creek near Monarch MT 6.5 2.83 153 11,000 2016-06-25 10:15:00  
06090800 Missouri River at Fort Benton MT 13.5 2.40 5,810 140,000 2016-06-25 10:30:00 FBNM8
06091700 Two Medicine River bl South Fork nr Browning MT   2.70 313 11,700 2016-06-25 10:15:00 TMRM8
06093200 Badger Cr bl Four Horns Canal nr Browning MT 7 4.34 105 20,700 2016-06-25 10:15:00 BDCM8
06099000 Cut Bank Creek at Cut Bank MT   2.37 151 16,600 2016-06-25 10:30:00  
06099500 Marias River near Shelby MT 9 3.25 389 241,000 2016-06-25 10:30:00 SHLM8
06101500 Marias River near Chester MT   3.48 509 10,400 2016-06-25 10:15:00 MRCM8
06102050 Marias River near Loma MT   1.23 498 10,800 2016-06-25 10:00:00 LOMM8
06102500 Teton River bl South Fork nr Choteau MT   4.11 117 54,600 2016-06-25 10:45:00 TSFM8
06108000 Teton River near Dutton MT 9 1.39 16 71,300 2016-06-25 10:30:00 DTTM8
06108800 Teton River at Loma MT   1.46 3.6 3,910 2016-06-25 10:30:00 LTRM8
06109500 Missouri River at Virgelle MT 17 3.50 5,970 122,000 2016-06-25 10:00:00 VRGM8
06110020 Judith River above Carr Creek near Utica MT   2.89 45 542 2016-06-25 10:30:00  
06111800 Big Spring Cr at R&B Trading Post nr Lewistown MT   3.82 186 1,020 2016-06-25 10:30:00  
06114700 Judith River nr mouth, nr Winifred MT   5.16 472 15,300 2016-06-25 10:15:00 JDRM8
06115200 Missouri River near Landusky MT 25 14.17 6,360 137,000 2016-06-25 10:00:00 LDKM8
06118500 South Fork Musselshell R ab Martinsdale MT   3.59 36 5,240 2016-06-25 10:30:00  
06119600 Musselshell River nr Martinsdale, MT   1.96 40 4,780 2016-06-25 10:15:00 MRMM8
06120500 Musselshell River at Harlowton MT 7 2.96 74 7,270 2016-06-25 11:00:00 HLWM8
06123030 Musselshell River ab Mud Cr nr Shawmut MT 6.5 2.64 28 8,900 2016-06-25 10:30:00 SHAM8
06125600 Musselshell River ab Big Coulee Creek at Lavina MT 8.5 2.60 207 4,890 2016-06-25 10:30:00  
06126500 Musselshell River near Roundup MT 10 1.77 171 15,000 2016-06-25 10:00:00 RUPM8
06127500 Musselshell River at Musselshell MT 11 3.25 100 16,200 2016-06-25 10:30:00 MUSM8
06130000 Flatwillow Creek near Mosby MT  

 

6,530 19,700 2014-08-24 23:45:00  
06130500 Musselshell River at Mosby MT 10 1.68 85 25,100 2016-06-25 10:45:00 MSBM8
06131200 Nelson Creek near Van Norman MT   1.87 0.16 1,750 2016-06-25 10:15:00  
06132000 Missouri River below Fort Peck Dam MT   3.15

 

65,900 2016-06-25 10:15:00 FPMM8
06133500 N F Milk River ab St. Mary canal nr Browning MT   1.64 15 3,090 2016-06-25 10:15:00 NFMM8
06135000 Milk River at Eastern Crossing of Int Bndry 9.5 4.07 543 14,400 2016-06-25 10:15:00 ERNM8
06139500 Big Sandy Creek near Havre MT 8.5 2.97 71 6,000 2016-06-25 10:30:00 BSMM8
06140500 Milk River at Havre MT 10 2.77 792 20,000 2016-06-25 10:15:00 HVRM8
06142400 Clear Creek near Chinook MT 5.5 3.38 69 1,490 2016-06-25 10:30:00 CCMM8
06151500 Battle Creek near Chinook MT 10 1.38 11 19,400 2016-06-25 10:30:00 BCMM8
06154100 Milk River near Harlem MT 21 5.85 465 19,000 2016-06-25 10:30:00 HRLM8
06154400 Peoples Creek near Hays MT   3.40 33 8,460 2016-06-25 10:15:00 PEOM8
06155030 Milk River near Dodson MT 23 5.48 370 13,200 2016-06-25 10:15:00 DMRM8
06155500 Milk River at Malta MT 16 2.32 279 24,000 2016-06-25 10:45:00  
06164000 Frenchman River at international boundary   1.228 0.074 22,700 2016-06-25 10:25:00  
06164510 Milk River at Juneberg Bridge nr Saco MT 20 4.22 764 12,400 2016-06-25 10:00:00 SACM8
06166000 Beaver Cr bl Guston Coulee nr Saco MT 11

 

44 23,500 2016-06-25 10:15:00 GSCM8
06167500 Beaver Creek near Hinsdale MT 14 4.94 236 8,210 2016-06-25 10:30:00 BCHM8
06169500 Rock Creek bl Horse Creek nr int'l boundary   2.80 10 5,110 2016-06-25 10:30:00 ORHM8
06172310 Milk River at Tampico MT 23 5.11 871 19,700 2016-06-25 10:30:00 TMPM8
06174500 Milk River at Nashua MT 20 3.58 830 45,300 2016-06-25 10:00:00 NSHM8
06175100 Missouri R at W Frazer Pump Plant nr Frazer MT   9.17

 

  2016-06-25 10:00:00  
06175510 Missouri R at E Frazer Pump Plant nr Frazer MT   43.26

 

  2016-06-25 10:30:00  
06175520 Missouri River near Oswego MT   85.54

 

  2016-06-25 10:45:00  
06177000 Missouri River near Wolf Point MT 23 12.69 11,100 93,200 2016-06-25 10:00:00 RDVM8
06177500 Redwater River at Circle MT 11 3.42 0.69 6,960 2016-06-25 10:30:00 RRCM8
06178000 Poplar River at international boundary 6 2.48 9.7 12,700 2016-06-25 10:15:00 PPRM8
06178500 East Poplar River at international boundary 10 5.37 3.0 4,020 2016-06-25 10:30:00 EPRM8
06181000 Poplar River near Poplar MT 15.5 2.59 107 40,000 2016-06-25 10:30:00 PLRM8
06183450 Big Muddy Creek near Antelope MT 12 2.48 23 3,190 2016-06-25 10:15:00 BGCM8
06185110 Big Muddy Creek nr mouth nr Culbertson MT   5.23 40 1,860 2016-06-25 10:15:00  
06185500 Missouri River near Culbertson MT 19 4.36 9,800 104,000 2016-06-25 10:00:00 CLBM8
06186500 Yellowstone River at Yellowstone Lk Outlet YNP 9 5.43 3,310 9,950 2016-06-25 10:30:00 YLOW4
06187915 Soda Butte Cr at Park Bndry at Silver Gate   1.95 153 1,250 2016-06-25 10:45:00 SBCM8
06188000 Lamar River nr Tower Ranger Station YNP 15 3.15 1,170 19,500 2016-06-25 10:15:00 TFLW4
06190540 Boiling River at Mammoth,YNP   1.17 25 36 2016-06-25 10:15:00 BRMW4
06191000 Gardner River near Mammoth YNP   2.53 225 2,110 2016-06-25 10:45:00 GDRM8
06191500 Yellowstone River at Corwin Springs MT 11 4.16 5,250 32,200 2016-06-25 10:00:00 CORM8
06192500 Yellowstone River near Livingston MT 9.5 4.81 6,130 40,600 2016-06-25 10:45:00 LIVM8
06195600 Shields River nr Livingston MT 5.5 1.46 154 5,600 2016-06-25 10:30:00 SLDM8
06200000 Boulder River at Big Timber MT 7 4.05 1,100 9,940 2016-06-25 10:45:00 BTMM8
06204050 West Rosebud Creek near Roscoe MT   1.56 286 1,630 2016-06-25 11:00:00 WRDM8
06204070 W Rosebud Cr at Emerald Lk Campground nr Roscoe   2.32 282 1,390 2016-06-25 10:30:00 WREM8
06205000 Stillwater River near Absarokee MT 6.5 3.67 1,830 12,000 2016-06-25 10:15:00 SRAM8
06207500 Clarks Fork Yellowstone River nr Belfry MT 8 3.73 2,130 14,800 2016-06-25 11:00:00 BFYM8
06208500 Clarks Fork Yellowstone River at Edgar MT 8.5 3.66 1,600 11,100 2016-06-25 10:30:00 EDGM8
06209500 Rock Creek near Red Lodge MT   6.01 357 3,110 2016-06-25 11:00:00 ROKM8
06211000 Red Lodge Cr ab Cooney Re nr Boyd MT   1.91 30 4,700 2016-06-25 10:15:00 BYDM8
06211500 Willow Creek near Boyd MT   2.82 34 2,110 2016-06-25 10:30:00 BOYM8
06214500 Yellowstone River at Billings MT 13.5 5.25 11,000 82,000 2016-06-25 10:00:00 BILM8
06216900 Pryor Creek nr Huntley MT   3.26 2.5 17,500 2016-06-25 10:30:00  
06287000 Bighorn River near St. Xavier, MT   60.19 2,790 37,400 2016-06-25 10:15:00 STXM8
06287800 Bighorn River at bridge, at St. Xavier, MT   6.60 2,630 14,700 2016-06-25 10:30:00  
06288400 Bighorn River at Two Leggins Bridge, near Hardin   10.46 2,380 15,100 2016-06-25 10:30:00  
06289000 Little Bighorn River at State Line nr Wyola MT   2.74 155 2,730 2016-06-25 11:00:00 LBSM8
06294000 Little Bighorn River near Hardin MT 8 2.60 165 22,600 2016-06-25 10:15:00 HRDM8
06294500 Bighorn River ab Tullock Cr nr Bighorn MT   1.99 2,870 33,200 2016-06-25 10:00:00 BGHM8
06295000 Yellowstone River at Forsyth MT 14 3.64 13,500 109,800 2016-06-25 10:45:00 FRYM8
06295113 Rosebud C at Reservation Bndry nr Kirby MT   2.64 5.5 1,720 2016-06-25 10:45:00 RCRM8
06295220 Rosebud C Bel Lame Deer C nr Lame Deer MT   4.13 15   2016-06-25 10:45:00  
06295900 Rosebud Creek at Hwy 447 bridge nr Rosebud, MT   3.98 7.0   2016-06-25 10:30:00  
06306300 Tongue River at State Line nr Decker MT   2.96 301 17,500 2016-06-25 10:45:00 DSLM8
06307500 Tongue River at Tongue R Dam nr Decker MT   11.37 334 10,800 2016-06-25 10:30:00 DKRM8
06307600 Hanging Woman Creek near Birney MT   0.82 0.37 2,060 2016-06-25 10:00:00 HWCM8
06307616 Tongue R at Birney Day School Br nr Birney MT 7 1.55 249 5,340 2016-06-25 10:30:00 BNYM8
06307740 Otter Creek at Ashland MT   1.21 3.0 650 2016-06-25 10:00:00 OCAM8
06307830 Tongue R bl Brandenberg bridge nr Ashland MT   3.20 333 8,340 2016-06-25 10:15:00  
06308400 Pumpkin Creek near Miles City MT 13 1.95 0.05 7,900 2016-06-25 10:45:00 PMKM8
06308500 Tongue River at Miles City MT 10 2.34 115 15,300 2016-06-25 10:00:00 MICM8
06309000 Yellowstone River at Miles City MT 13 5.18 14,000 102,000 2016-06-25 10:00:00 MILM8
06324500 Powder River at Moorhead MT   2.62 156 100,000 2016-06-25 10:45:00 MHDM8
06326500 Powder River near Locate MT   0.84 153 31,000 2016-06-25 10:00:00 LOCM8
06327500 Yellowstone River at Glendive MT 53.5 44.82 13,900 125,000 2016-06-25 10:00:00 GLNM8
06329500 Yellowstone River near Sidney MT 19 6.43 12,900 159,000 2016-06-25 10:00:00 SIDM8
12301250 Tobacco River at Eureka, MT   3.65 483   2016-06-25 10:30:00  
12301300 Tobacco River near Eureka MT   3.25 469 3,180 2016-06-25 10:00:00 TOBM8
12301933 Kootenai River bl Libby Dam nr Libby MT 27.5 19.12 6,990 54,000 2016-06-25 10:00:00 KBDM8
12302055 Fisher River near Libby MT 7.5 3.62 331 12,000 2016-06-25 10:45:00 FISM8
12304500 Yaak River near Troy MT   3.95 473 13,400 2016-06-25 10:45:00 TRYM8
12323240 Blacktail Creek at Butte MT 4.3 1.19 21 303 2016-06-25 10:45:00 BKTM8
12323250 Silver Bow Cr bl Blacktail Cr at Butte MT   1.64 20 447 2016-06-25 10:45:00 SLVM8
12323600 Silver Bow Creek at Opportunity MT   2.06 60 1,300 2016-06-25 10:45:00 OPPM8
12323670 Mill Creek nr Anaconda, MT   2.77 65 432 2016-06-25 10:00:00 MCAM8
12323700 Mill Creek at Opportunity, MT   2.52 35 284 2016-06-25 10:30:00 MCOM8
12323710 Willow Creek nr Anaconda, MT   2.08 6.5 165 2016-06-25 10:00:00 WCAM8
12323720 Willow Creek at Opportunity, MT   4.31 25 202 2016-06-25 10:30:00 WCOM8
12323750 Silver Bow Creek at Warm Springs MT   2.17 97 1,320 2016-06-25 10:30:00 WMSM8
12323760 Warm Springs Creek near Anaconda MT 4.4 2.55 159 930 2016-06-25 10:30:00 ANDM8
12323770 Warm Springs Creek at Warm Springs MT   3.26 88 828 2016-06-25 10:45:00 WSPM8
12323800 Clark Fork near Galen MT   2.28 173 1,410 2016-06-25 10:30:00 GALM8
12323840 Lost Creek near Anaconda MT   2.54 5.7 101 2016-06-25 10:00:00  
12323850 Lost Creek near Galen, MT   1.23 2.1 164 2016-06-25 10:30:00 LCGM8
12324200 Clark Fork at Deer Lodge MT 6 2.65 189 2,500 2016-06-25 10:30:00 DLGM8
12324400 Clark Fork ab Little Blackfoot R nr Garrison MT   3.23 208 2,690 2016-06-25 10:45:00  
12324590 Little Blackfoot River near Garrison MT   1.02 78 8,650 2016-06-25 10:30:00 LBFM8
12324680 Clark Fork at Goldcreek MT   4.55 387 12,000 2016-06-25 10:00:00 GLDM8
12325500 Flint Creek near Southern Cross MT   0.98 41 192 2016-06-25 10:45:00 FTCM8
12329500 Flint Creek at Maxville MT   2.39 103 1,680 2016-06-25 10:45:00 FLNM8
12330000 Boulder Creek at Maxville MT   1.76 60 1,580 2016-06-25 10:30:00 BMXM8
12331500 Flint Creek near Drummond MT   2.06 51 1,460 2016-06-25 10:30:00 FCKM8
12331800 Clark Fork near Drummond MT 8 2.87 537 9,800 2016-06-25 10:15:00 DRMM8
12332000 Middle Fork Rock Cr nr Philipsburg MT   2.19 133 1,680 2016-06-25 10:15:00 MFRM8
12334510 Rock Creek near Clinton MT 9 5.76 509 6,500 2016-06-25 10:45:00 RCCM8
12334550 Clark Fork at Turah Bridge nr Bonner MT   4.25 1,130 13,300 2016-06-25 10:30:00 BNRM8
12335100 Blackfoot R ab Nevada Cr nr Helmville MT   4.46 394 4,860 2016-06-25 10:45:00 BLAM8
12335500 Nevada Cr ab reservoir, nr Helmville, MT   1.60 20 1,800 2016-06-25 10:45:00 NVDM8
12338300 NF Blackfoot R ab Dry Gulch nr Ovando MT   3.20 446 4,700 2016-06-25 10:00:00 NFRM8
12340000 Blackfoot River near Bonner MT 10 3.03 1,280 19,200 2016-06-25 10:45:00 BONM8
12340500 Clark Fork above Missoula MT 10 3.66 2,530 48,000 2016-06-25 11:00:00 ABOM8
12342500 West Fork Bitterroot River nr Conner MT   1.75 165 4,060 2016-06-25 10:15:00 WFBM8
12344000 Bitterroot River near Darby MT   2.54 884 11,500 2016-06-25 10:15:00 DARM8
12350250 Bitterroot River at Bell Crossing nr Victor MT 11 5.44 1,490 18,700 2016-06-25 10:45:00 VIBM8
12352500 Bitterroot River near Missoula MT 11 4.57 2,400 38,300 2016-06-25 10:45:00 BITM8
12353000 Clark Fork below Missoula MT 11 2.80 4,820 55,100 2016-06-25 11:00:00 BELM8
12354000 St. Regis River near St. Regis, MT 8 2.86 340 29,000 2016-06-25 10:45:00 STRM8
12354500 Clark Fork at St. Regis MT 19 7.14 6,200 68,900 2016-06-25 10:45:00 SRGM8
12355000 Flathead River at Flathead British Columbia 10.5 5.61 1,010 16,300 2016-06-25 10:30:00 NFFQ2
12355500 N F Flathead River nr Columbia Falls MT 13 4.42 4,370 69,100 2016-06-25 10:45:00 FCFM8
12358500 M F Flathead River near West Glacier MT 10 3.85 4,080 140,000 2016-06-25 10:45:00 WGCM8
12359800 S F Flathead R ab Twin C nr Hungry Horse MT   7.30 2,740 50,900 2016-06-25 10:45:00 TNCM8
12362000 Hungry Horse Reservoir nr Hungry Horse MT   3557.96

 

  2016-06-25 10:45:00 HHWM8
12362500 S F Flathead River nr Columbia Falls MT   5.47 2,060 46,200 2016-06-25 10:45:00  
12363000 Flathead River at Columbia Falls MT 13 6.14 10,500 176,000 2016-06-25 10:45:00 CFMM8
12365700 Stillwater River at Lawrence Park, at Kalispell 7.5 3.83 387 3,940 2016-06-25 10:45:00 SRLM8
12366080 Whitefish River nr mouth at Kalispell, MT 8.3 3.94 389 1,450 2016-06-25 10:45:00 WFRM8
12366500 Flathead River at Foys Bend nr Kalispell MT   96.13

 

  2016-06-25 10:45:00  
12370000 Swan River near Bigfork, MT 6.5 3.51 1,510 8,890 2016-06-25 10:00:00 SWRM8
12371550 Flathead Lake at Polson MT   2892.86

 

  2016-06-25 10:30:00 KERM8
12372000 Flathead River near Polson MT 18 7.37 12,700 110,000 2016-06-25 10:30:00 FPOM8
12374250 Mill Cr ab Bassoo Cr nr Niarada MT   1.34 7.5 283 2016-06-25 10:15:00  
12375900 South Crow Creek near Ronan MT   2.53 49 608 2016-06-25 10:15:00  
12377150 Mission Creek ab reservoir nr St. Ignatius MT   2.57 140 706 2016-06-25 10:15:00 MSNM8
12381400 South Fork Jocko River near Arlee MT   1.84 73 1,220 2016-06-25 10:15:00 ARLM8
12388700 Flathead River at Perma MT   10.29 12,100 54,900 2016-06-25 10:30:00 PERM8
12389000 Clark Fork near Plains MT 16 6.25 18,500 134,000 2016-06-25 10:45:00 PLNM8
12389500 Thompson River near Thompson Falls MT 7 3.07 285 6,190 2016-06-25 10:45:00 THRM8
12390700 Prospect Creek at Thompson Falls MT 7.5 1.38 129 5,490 2016-06-25 10:15:00 PRCM8
480608115242901 Libby Wetland Site bl Schrieber Lake nr Libby, MT   0.65 2.0 34 2016-06-25 10:30:00